Time;durP1;ratioP1;P1;durP2;ratioP2;P2;SDS_P1;SDS_P2;PMS_P1;PMS_P2;Temp;Humidity;BMP_temperature;BMP_pressure;BME280_temperature;BME280_humidity;BME280_pressure;Samples;Min_cycle;Max_cycle;Signal;HPM_P1;HPM_P2
2023/04/30 00:01:54;;;;;;;4.30;3.90;;;;;;;16.26;55.09;97745.06;5030336;28;20199;-69
2023/04/30 00:04:20;;;;;;;7.00;4.23;;;;;;;16.24;55.11;97745.25;5045769;28;20233;-72
2023/04/30 00:06:45;;;;;;;5.97;4.60;;;;;;;16.19;55.05;97736.19;5032860;28;20250;-70
2023/04/30 00:09:11;;;;;;;4.97;4.47;;;;;;;16.15;55.26;97741.00;5033563;28;20199;-69
2023/04/30 00:11:36;;;;;;;5.23;4.70;;;;;;;16.12;54.96;97741.34;5040468;28;20236;-72
2023/04/30 00:14:02;;;;;;;4.87;4.47;;;;;;;16.09;55.17;97745.19;5042939;28;20698;-71
2023/04/30 00:16:27;;;;;;;5.50;4.30;;;;;;;16.10;55.25;97732.78;5023626;28;20730;-71
2023/04/30 00:18:52;;;;;;;4.73;4.10;;;;;;;16.08;56.01;97745.34;5031783;28;20230;-70
2023/04/30 00:21:18;;;;;;;6.37;4.53;;;;;;;16.04;56.22;97739.56;5036903;28;20660;-72
2023/04/30 00:23:43;;;;;;;5.83;4.30;;;;;;;15.97;56.64;97741.28;5034028;28;20206;-72
2023/04/30 00:26:09;;;;;;;5.67;4.60;;;;;;;15.94;56.73;97739.78;5039434;28;20247;-71
2023/04/30 00:28:34;;;;;;;6.47;4.90;;;;;;;15.91;56.05;97739.31;5042452;28;20198;-70
2023/04/30 00:31:00;;;;;;;6.07;5.50;;;;;;;15.90;55.85;97737.66;5038440;28;20237;-70
2023/04/30 00:33:25;;;;;;;7.07;4.90;;;;;;;15.88;55.58;97735.22;5035389;28;20660;-70
2023/04/30 00:35:51;;;;;;;5.57;5.07;;;;;;;15.75;55.94;97741.00;5032062;28;20215;-70
2023/04/30 00:38:16;;;;;;;6.47;5.87;;;;;;;15.74;55.98;97742.03;5035681;28;20271;-71
2023/04/30 00:40:42;;;;;;;7.20;5.10;;;;;;;15.79;56.08;97737.03;5035438;28;20269;-72
2023/04/30 00:43:07;;;;;;;5.70;5.10;;;;;;;15.80;55.97;97748.44;5037544;28;20191;-72
2023/04/30 00:45:33;;;;;;;5.90;5.00;;;;;;;15.83;55.97;97737.50;5033790;28;20213;-70
2023/04/30 00:47:58;;;;;;;6.13;5.53;;;;;;;15.81;55.76;97747.44;5034835;28;20191;-71
2023/04/30 00:50:24;;;;;;;4.67;4.20;;;;;;;15.81;55.93;97750.91;5038247;28;20281;-71
2023/04/30 00:52:49;;;;;;;6.77;4.83;;;;;;;15.79;55.81;97747.59;5042535;28;20652;-70
2023/04/30 00:55:15;;;;;;;5.43;4.93;;;;;;;15.82;55.69;97746.44;5033949;28;20199;-71
2023/04/30 00:57:41;;;;;;;5.70;4.63;;;;;;;15.81;55.92;97750.91;5034963;28;20219;-70
2023/04/30 01:00:10;;;;;;;6.43;5.57;;;;;;;15.82;55.76;97747.25;5034836;28;20895;-71
2023/04/30 01:02:36;;;;;;;6.50;5.37;;;;;;;15.84;55.28;97751.56;5032220;28;20198;-72
2023/04/30 01:05:05;;;;;;;6.90;5.60;;;;;;;15.81;55.49;97753.53;5034853;28;20802;-72
2023/04/30 01:07:30;;;;;;;6.40;5.60;;;;;;;15.81;55.70;97750.09;5036401;28;20445;-71
2023/04/30 01:09:56;;;;;;;5.27;4.70;;;;;;;15.84;55.60;97746.28;5033749;28;20492;-70
2023/04/30 01:12:43;;;;;;;6.23;5.43;;;;;;;15.84;55.58;97748.91;5037055;28;20271;-71
2023/04/30 01:15:22;;;;;;;5.93;5.33;;;;;;;15.81;55.73;97744.81;5027941;28;20226;-71
2023/04/30 01:17:51;;;;;;;6.00;5.17;;;;;;;15.84;55.67;97744.44;5035221;28;20425;-70
2023/04/30 01:20:16;;;;;;;6.57;4.87;;;;;;;15.79;55.76;97742.31;5033095;28;20513;-72
2023/04/30 01:22:42;;;;;;;7.47;5.50;;;;;;;15.75;55.72;97741.00;5042190;28;20509;-71
2023/04/30 01:25:19;;;;;;;6.43;5.73;;;;;;;15.74;55.47;97739.38;5042574;28;20214;-71
2023/04/30 01:28:01;;;;;;;6.37;5.73;;;;;;;15.75;55.51;97742.84;5025909;28;20755;-72
2023/04/30 01:30:27;;;;;;;8.73;6.13;;;;;;;15.73;55.47;97735.09;5041085;28;20434;-71
2023/04/30 01:32:52;;;;;;;7.63;6.37;;;;;;;15.71;55.32;97729.16;5029080;28;20435;-70
2023/04/30 01:35:18;;;;;;;6.73;5.67;;;;;;;15.70;54.93;97732.78;5034728;28;20572;-71
2023/04/30 01:38:13;;;;;;;7.70;6.00;;;;;;;15.64;55.10;97738.75;5038978;28;20237;-71
2023/04/30 01:40:48;;;;;;;9.23;6.00;;;;;;;15.62;55.18;97724.91;5039695;28;20469;-71
2023/04/30 01:43:20;;;;;;;9.60;7.03;;;;;;;15.56;55.27;97730.88;5039270;28;20901;-70
2023/04/30 01:46:19;;;;;;;8.90;6.97;;;;;;;15.49;55.41;97731.56;5034517;28;20480;-71
2023/04/30 01:49:01;;;;;;;9.90;5.83;;;;;;;15.51;55.40;97732.19;5032914;28;20540;-71
2023/04/30 01:51:41;;;;;;;11.23;7.00;;;;;;;15.46;55.87;97726.63;5032890;28;20442;-70
2023/04/30 01:54:24;;;;;;;6.77;5.93;;;;;;;15.47;55.94;97736.19;5037754;28;20851;-71
2023/04/30 01:57:13;;;;;;;8.07;6.47;;;;;;;15.50;55.55;97741.09;5046054;28;20537;-71
2023/04/30 01:59:38;;;;;;;7.30;6.50;;;;;;;15.50;55.60;97737.66;5032685;28;20437;-71
2023/04/30 02:02:05;;;;;;;7.90;7.20;;;;;;;15.43;55.64;97737.50;5029905;28;20437;-70
2023/04/30 02:04:30;;;;;;;8.57;7.20;;;;;;;15.45;55.55;97732.88;5037733;28;20183;-71
2023/04/30 02:06:57;;;;;;;11.50;7.90;;;;;;;15.48;55.54;97737.84;5029885;28;20967;-71
2023/04/30 02:09:23;;;;;;;8.70;6.97;;;;;;;15.49;55.59;97743.94;5033375;28;20274;-71
2023/04/30 02:11:49;;;;;;;10.30;6.87;;;;;;;15.51;55.62;97732.19;5031313;28;20484;-70
2023/04/30 02:14:14;;;;;;;10.63;7.87;;;;;;;15.51;55.19;97739.31;5032913;28;20298;-71
2023/04/30 02:16:40;;;;;;;8.47;7.57;;;;;;;15.44;55.23;97739.16;5029747;28;20768;-71
2023/04/30 02:19:05;;;;;;;10.33;7.80;;;;;;;15.42;55.30;97741.16;5027066;28;20194;-71
2023/04/30 02:21:31;;;;;;;10.17;7.73;;;;;;;15.40;55.26;97732.56;5027016;28;20200;-71
2023/04/30 02:23:56;;;;;;;10.70;8.10;;;;;;;15.43;55.19;97734.88;5030619;28;20191;-69
2023/04/30 02:26:22;;;;;;;9.83;8.00;;;;;;;15.41;55.25;97728.13;5028237;28;20211;-71
2023/04/30 02:28:47;;;;;;;8.73;7.83;;;;;;;15.44;55.47;97731.25;5031632;28;20188;-71
2023/04/30 02:31:12;;;;;;;9.83;8.30;;;;;;;15.38;55.36;97729.25;5039676;28;20538;-71
2023/04/30 02:33:38;;;;;;;12.30;8.60;;;;;;;15.40;55.53;97731.75;5031338;28;20242;-71
2023/04/30 02:36:03;;;;;;;8.87;7.93;;;;;;;15.36;55.63;97726.81;5031418;28;20294;-71
2023/04/30 02:38:29;;;;;;;9.83;8.00;;;;;;;15.34;55.59;97725.34;5030510;28;20230;-70
2023/04/30 02:40:55;;;;;;;11.40;8.67;;;;;;;15.30;55.88;97730.13;5030752;28;20199;-70
2023/04/30 02:43:20;;;;;;;10.80;8.30;;;;;;;15.34;55.76;97734.06;5031321;28;20274;-72
2023/04/30 02:45:45;;;;;;;10.80;9.27;;;;;;;15.31;55.66;97738.88;5032181;28;20727;-70
2023/04/30 02:48:11;;;;;;;12.33;9.30;;;;;;;15.29;55.68;97727.66;5031006;28;20180;-71
2023/04/30 02:50:36;;;;;;;9.30;8.20;;;;;;;15.30;55.49;97729.31;5030589;28;20250;-71
2023/04/30 02:53:02;;;;;;;12.83;8.73;;;;;;;15.28;55.44;97728.63;5037775;28;20238;-72
2023/04/30 02:55:27;;;;;;;11.77;9.80;;;;;;;15.26;55.75;97730.63;5032046;28;20290;-71
2023/04/30 02:57:53;;;;;;;10.87;8.97;;;;;;;15.27;55.60;97729.63;5030434;28;20754;-71
2023/04/30 03:00:18;;;;;;;10.50;9.17;;;;;;;15.26;55.61;97730.63;5031017;28;20767;-72
2023/04/30 03:02:44;;;;;;;14.17;9.57;;;;;;;15.22;56.04;97732.78;5031044;28;20230;-71
2023/04/30 03:05:10;;;;;;;12.20;9.30;;;;;;;15.18;56.05;97734.94;5030855;28;20192;-70
2023/04/30 03:07:35;;;;;;;14.30;9.70;;;;;;;15.19;56.12;97728.69;5028762;28;20692;-71
2023/04/30 03:10:01;;;;;;;17.00;9.20;;;;;;;15.16;56.05;97730.84;5029645;28;20443;-70
2023/04/30 03:12:26;;;;;;;12.67;8.80;;;;;;;15.14;56.33;97732.81;5030202;28;20267;-72
2023/04/30 03:14:52;;;;;;;10.50;9.10;;;;;;;15.14;56.08;97723.06;5036613;28;20876;-71
2023/04/30 03:17:17;;;;;;;13.70;9.70;;;;;;;15.11;56.22;97733.16;5026759;28;20740;-72
2023/04/30 03:19:43;;;;;;;19.27;9.60;;;;;;;15.11;56.26;97723.44;5030082;28;20195;-71
2023/04/30 03:22:10;;;;;;;10.33;8.50;;;;;;;15.12;56.21;97727.69;5028045;28;20195;-72
2023/04/30 03:24:35;;;;;;;10.57;9.30;;;;;;;15.14;56.24;97728.34;5033371;28;20187;-72
2023/04/30 03:27:00;;;;;;;11.30;8.97;;;;;;;15.12;56.25;97725.03;5029364;28;20454;-72
2023/04/30 03:29:26;;;;;;;10.60;8.87;;;;;;;15.13;56.26;97731.97;5038103;28;20207;-72
2023/04/30 03:31:51;;;;;;;15.23;9.27;;;;;;;15.10;56.47;97732.34;5031684;28;20207;-70
2023/04/30 03:34:17;;;;;;;16.63;9.60;;;;;;;15.14;56.30;97730.97;5029824;28;20211;-71
2023/04/30 03:36:42;;;;;;;10.90;9.57;;;;;;;15.13;56.69;97736.44;5028763;28;20401;-71
2023/04/30 03:39:08;;;;;;;10.83;9.43;;;;;;;15.14;56.58;97727.53;5027779;28;20423;-70
2023/04/30 03:41:34;;;;;;;10.27;8.90;;;;;;;15.03;56.48;97726.06;5030120;28;20245;-71
2023/04/30 03:43:59;;;;;;;13.60;8.87;;;;;;;14.93;56.79;97731.53;5013294;28;20996;-71
2023/04/30 03:46:25;;;;;;;16.10;9.97;;;;;;;14.96;56.62;97728.53;5010823;28;20204;-70
2023/04/30 03:48:51;;;;;;;13.33;8.50;;;;;;;14.97;56.90;97726.75;5028954;28;20572;-70
2023/04/30 03:51:18;;;;;;;14.10;9.47;;;;;;;14.98;57.22;97723.13;5036902;28;20256;-72
2023/04/30 03:53:44;;;;;;;11.90;9.73;;;;;;;14.94;56.98;97722.59;5026008;28;20207;-72
2023/04/30 03:56:09;;;;;;;10.63;8.97;;;;;;;14.94;57.24;97729.72;5028541;28;20515;-72
2023/04/30 03:58:35;;;;;;;11.47;9.57;;;;;;;14.97;57.14;97729.38;5027840;28;20203;-72
2023/04/30 04:01:00;;;;;;;11.20;9.53;;;;;;;14.96;57.17;97725.09;5028394;28;20188;-70
2023/04/30 04:03:26;;;;;;;13.97;8.77;;;;;;;14.96;57.39;97730.38;5028924;28;20274;-70
2023/04/30 04:05:51;;;;;;;14.33;9.23;;;;;;;14.89;57.56;97720.47;5030232;28;20253;-71
2023/04/30 04:08:17;;;;;;;10.30;8.17;;;;;;;14.83;57.84;97725.59;5029247;28;20246;-71
2023/04/30 04:10:42;;;;;;;11.97;7.67;;;;;;;14.84;57.87;97728.09;5029233;28;20202;-71
2023/04/30 04:13:08;;;;;;;12.47;8.07;;;;;;;14.70;58.90;97739.31;5029853;28;21834;-70
2023/04/30 04:15:33;;;;;;;9.80;7.37;;;;;;;14.81;58.83;97738.13;5021325;28;20307;-70
2023/04/30 04:17:59;;;;;;;8.13;7.10;;;;;;;14.82;58.75;97747.69;5028131;28;20566;-72
2023/04/30 04:20:24;;;;;;;13.27;7.47;;;;;;;14.84;58.93;97741.28;5028645;28;20268;-70
2023/04/30 04:22:50;;;;;;;11.30;8.20;;;;;;;14.82;58.55;97745.88;5028364;28;20202;-71
2023/04/30 04:25:16;;;;;;;11.30;8.13;;;;;;;14.78;58.47;97744.56;5032938;28;20188;-70
2023/04/30 04:27:42;;;;;;;13.50;8.87;;;;;;;14.81;58.26;97748.69;5028399;28;20231;-70
2023/04/30 04:30:08;;;;;;;16.80;9.17;;;;;;;14.62;58.63;97749.84;5030186;28;20462;-71
2023/04/30 04:32:45;;;;;;;8.10;7.30;;;;;;;14.63;59.00;97740.91;5033004;28;20203;-69
2023/04/30 04:35:14;;;;;;;9.23;7.57;;;;;;;14.70;58.75;97750.66;5027740;28;20208;-70
2023/04/30 04:37:39;;;;;;;8.23;7.43;;;;;;;14.76;58.55;97740.44;5029933;28;21161;-71
2023/04/30 04:40:06;;;;;;;10.43;8.40;;;;;;;14.79;58.55;97746.22;5027643;28;20438;-69
2023/04/30 04:42:31;;;;;;;9.60;8.37;;;;;;;14.70;58.62;97748.03;5027419;28;20222;-70
2023/04/30 04:44:57;;;;;;;10.83;9.30;;;;;;;14.60;59.31;97755.25;5029438;28;20458;-71
2023/04/30 04:47:22;;;;;;;11.20;8.70;;;;;;;14.53;59.72;97759.56;5025889;28;20302;-72
2023/04/30 04:49:47;;;;;;;11.60;9.37;;;;;;;14.54;60.02;97753.28;5027828;28;20237;-71
2023/04/30 04:52:13;;;;;;;13.10;8.83;;;;;;;14.64;59.79;97758.38;5031065;28;20192;-71
2023/04/30 04:54:38;;;;;;;12.80;9.37;;;;;;;14.67;59.50;97751.03;5035973;28;20715;-70
2023/04/30 04:57:04;;;;;;;10.67;8.93;;;;;;;14.63;59.77;97752.28;5023371;28;20215;-71
2023/04/30 04:59:30;;;;;;;9.63;8.23;;;;;;;14.49;60.34;97755.59;5028004;28;20274;-71
2023/04/30 05:01:55;;;;;;;13.40;7.80;;;;;;;14.52;60.44;97758.72;5027560;28;20195;-70
2023/04/30 05:04:20;;;;;;;9.70;8.70;;;;;;;14.52;60.23;97753.44;5027966;28;20192;-70
2023/04/30 05:06:46;;;;;;;9.53;8.53;;;;;;;14.65;59.97;97754.75;5006681;28;20285;-71
2023/04/30 05:09:11;;;;;;;10.97;8.23;;;;;;;14.73;59.71;97752.16;5026535;28;20210;-72
2023/04/30 05:11:37;;;;;;;12.97;9.00;;;;;;;14.73;59.38;97749.53;5027963;28;20203;-70
2023/04/30 05:14:03;;;;;;;14.20;9.10;;;;;;;14.79;58.91;97751.50;5031180;28;20216;-71
2023/04/30 05:16:28;;;;;;;10.53;9.37;;;;;;;14.85;59.22;97744.72;5025301;28;20331;-71
2023/04/30 05:18:54;;;;;;;13.13;9.00;;;;;;;14.93;58.72;97751.81;5027134;28;20195;-71
2023/04/30 05:21:20;;;;;;;10.47;8.67;;;;;;;14.90;58.96;97752.97;5028598;28;20191;-72
2023/04/30 05:23:45;;;;;;;11.70;8.77;;;;;;;14.98;58.84;97747.69;5031765;28;20237;-70
2023/04/30 05:26:11;;;;;;;13.10;9.50;;;;;;;15.00;59.02;97752.78;5028227;28;20215;-71
2023/04/30 05:28:36;;;;;;;11.70;10.30;;;;;;;15.02;58.57;97745.53;5027969;28;20597;-70
2023/04/30 05:31:02;;;;;;;9.97;8.30;;;;;;;15.00;59.04;97748.34;5031999;28;20630;-69
2023/04/30 05:33:27;;;;;;;12.53;10.53;;;;;;;15.03;58.43;97747.19;5027908;28;20666;-71
2023/04/30 05:35:53;;;;;;;12.83;9.90;;;;;;;14.97;58.31;97750.50;5027982;28;20219;-71
2023/04/30 05:38:18;;;;;;;12.70;10.30;;;;;;;14.92;58.57;97755.44;5027680;28;20188;-71
2023/04/30 05:40:43;;;;;;;13.87;10.13;;;;;;;14.96;58.61;97751.50;5032039;28;20740;-72
2023/04/30 05:43:09;;;;;;;12.00;10.10;;;;;;;14.86;58.25;97751.66;5026121;28;20285;-73
2023/04/30 05:45:34;;;;;;;13.73;10.07;;;;;;;15.00;57.61;97747.50;5030371;28;20236;-70
2023/04/30 05:48:00;;;;;;;12.00;10.70;;;;;;;15.06;57.67;97752.13;5027356;28;20195;-70
2023/04/30 05:50:26;;;;;;;16.77;9.30;;;;;;;15.15;57.79;97751.13;5027673;28;20570;-72
2023/04/30 05:52:51;;;;;;;12.30;9.47;;;;;;;15.28;57.54;97755.03;5027115;28;20449;-71
2023/04/30 05:55:17;;;;;;;11.10;9.90;;;;;;;15.41;57.18;97743.97;5026701;28;20218;-70
2023/04/30 05:57:42;;;;;;;12.17;9.87;;;;;;;15.47;57.09;97754.69;5027531;28;20218;-71
2023/04/30 06:00:08;;;;;;;11.13;9.30;;;;;;;15.59;56.23;97751.66;5027157;28;20548;-71
2023/04/30 06:02:33;;;;;;;12.83;10.40;;;;;;;15.67;55.35;97754.25;5030577;28;20187;-71
2023/04/30 06:05:00;;;;;;;10.50;9.13;;;;;;;15.79;54.70;97750.25;5033114;28;20265;-70
2023/04/30 06:07:26;;;;;;;11.70;9.57;;;;;;;15.86;54.29;97746.97;5023540;28;20233;-70
2023/04/30 06:09:51;;;;;;;11.30;9.50;;;;;;;15.91;53.51;97753.38;5031355;28;20924;-70
2023/04/30 06:12:17;;;;;;;10.33;9.33;;;;;;;15.87;53.04;97759.19;5031038;28;20321;-72
2023/04/30 06:14:44;;;;;;;9.90;8.83;;;;;;;15.95;53.43;97759.94;5035545;28;20771;-69
2023/04/30 06:17:11;;;;;;;14.47;9.00;;;;;;;15.97;53.12;97757.16;5031253;28;20227;-72
2023/04/30 06:19:37;;;;;;;12.27;10.40;;;;;;;15.93;51.95;97763.75;5033574;28;21001;-71
2023/04/30 06:22:03;;;;;;;14.57;11.30;;;;;;;16.11;53.04;97759.06;5010196;28;20932;-71
2023/04/30 06:24:29;;;;;;;14.33;9.83;;;;;;;16.26;52.64;97753.00;5030488;28;20438;-71
2023/04/30 06:26:55;;;;;;;11.37;10.13;;;;;;;16.21;51.84;97755.34;5030283;28;20211;-70
2023/04/30 06:29:23;;;;;;;12.93;10.47;;;;;;;16.25;51.86;97756.66;5031003;28;20984;-71
2023/04/30 06:31:51;;;;;;;13.60;11.10;;;;;;;16.29;52.18;97763.22;5027176;28;20196;-71
2023/04/30 06:34:18;;;;;;;11.90;9.50;;;;;;;16.42;52.21;97757.38;5036208;28;20493;-70
2023/04/30 06:36:43;;;;;;;10.73;9.63;;;;;;;16.49;51.54;97765.44;5026297;28;20450;-71
2023/04/30 06:39:09;;;;;;;10.23;9.13;;;;;;;16.45;51.17;97761.47;5028793;28;20976;-69
2023/04/30 06:41:34;;;;;;;12.77;10.33;;;;;;;16.59;51.86;97766.00;5030292;28;20671;-71
2023/04/30 06:44:00;;;;;;;11.53;9.03;;;;;;;16.68;51.26;97762.28;5034075;28;20324;-70
2023/04/30 06:46:25;;;;;;;11.20;9.30;;;;;;;16.72;50.65;97757.44;5036283;28;20207;-70
2023/04/30 06:48:50;;;;;;;11.57;9.03;;;;;;;16.68;50.22;97757.00;5030431;28;20188;-71
2023/04/30 06:51:16;;;;;;;10.27;9.17;;;;;;;16.80;50.70;97759.22;5030922;28;20349;-72
2023/04/30 06:53:42;;;;;;;12.90;8.97;;;;;;;16.82;50.37;97765.97;5030975;28;20199;-72
2023/04/30 06:56:07;;;;;;;13.40;11.93;;;;;;;16.96;50.23;97761.75;5030455;28;20217;-73
2023/04/30 06:58:33;;;;;;;11.80;9.90;;;;;;;17.05;49.50;97757.22;5039603;28;20691;-71
2023/04/30 07:00:58;;;;;;;10.20;9.20;;;;;;;17.16;49.88;97753.28;5029435;28;20207;-71
2023/04/30 07:03:24;;;;;;;13.30;9.33;;;;;;;17.15;49.32;97751.63;5004044;28;20226;-72
2023/04/30 07:05:50;;;;;;;10.67;8.87;;;;;;;17.23;48.62;97754.22;5020841;28;20707;-72
2023/04/30 07:08:16;;;;;;;9.10;7.30;;;;;;;17.41;48.78;97753.03;5031686;28;20195;-72
2023/04/30 07:10:41;;;;;;;10.00;7.57;;;;;;;17.59;48.29;97750.84;5030656;28;20489;-68
2023/04/30 07:13:07;;;;;;;8.90;7.97;;;;;;;17.73;47.34;97746.50;5028690;28;20445;-70
2023/04/30 07:15:32;;;;;;;11.90;8.60;;;;;;;17.96;47.01;97750.84;5030649;28;20627;-71
2023/04/30 07:17:58;;;;;;;12.07;9.30;;;;;;;18.06;46.00;97753.25;5030232;28;20212;-71
2023/04/30 07:20:23;;;;;;;13.20;8.47;;;;;;;17.96;46.23;97753.50;5038455;28;20191;-72
2023/04/30 07:22:49;;;;;;;9.97;7.83;;;;;;;18.29;46.09;97753.09;5030395;28;20649;-70
2023/04/30 07:25:14;;;;;;;9.53;8.53;;;;;;;18.51;45.86;97747.78;5022272;28;20319;-71
2023/04/30 07:27:40;;;;;;;12.60;8.93;;;;;;;18.53;45.22;97743.94;5033977;28;20215;-71
2023/04/30 07:30:07;;;;;;;12.27;7.83;;;;;;;18.55;45.12;97749.88;5034194;28;20738;-70
2023/04/30 07:32:33;;;;;;;9.20;8.03;;;;;;;18.55;44.88;97731.28;5037525;28;20562;-72
2023/04/30 07:34:59;;;;;;;9.30;8.40;;;;;;;18.67;44.65;97744.88;5030420;28;20902;-69
2023/04/30 07:37:24;;;;;;;8.53;7.70;;;;;;;18.81;44.77;97742.34;5032403;28;20476;-72
2023/04/30 07:39:50;;;;;;;13.30;8.40;;;;;;;18.92;44.23;97739.16;5029662;28;20671;-71
2023/04/30 07:42:15;;;;;;;8.50;7.47;;;;;;;19.03;43.90;97735.16;5038241;28;20195;-72
2023/04/30 07:44:41;;;;;;;10.20;7.80;;;;;;;19.12;44.00;97742.00;5037485;28;20191;-71
2023/04/30 07:47:06;;;;;;;7.73;6.93;;;;;;;19.15;43.28;97730.97;5024015;28;20240;-71
2023/04/30 07:49:32;;;;;;;7.93;6.90;;;;;;;19.27;42.41;97733.91;5030043;28;20191;-71
2023/04/30 07:51:59;;;;;;;9.63;6.67;;;;;;;19.48;42.03;97725.03;5030544;28;20719;-71
2023/04/30 07:54:25;;;;;;;7.27;6.57;;;;;;;19.64;41.26;97728.38;5029171;28;20219;-71
2023/04/30 07:56:50;;;;;;;11.20;6.43;;;;;;;19.60;40.92;97737.75;5029926;28;20445;-72
2023/04/30 07:59:16;;;;;;;7.67;6.80;;;;;;;19.39;41.24;97736.84;5040146;28;20200;-72
2023/04/30 08:01:41;;;;;;;7.00;6.30;;;;;;;19.62;40.88;97725.91;5038486;28;20258;-72
2023/04/30 08:04:08;;;;;;;7.33;6.60;;;;;;;19.90;41.17;97729.53;5029672;28;20560;-72
2023/04/30 08:06:33;;;;;;;7.37;6.67;;;;;;;19.90;41.08;97721.56;5028953;28;20299;-72
2023/04/30 08:08:59;;;;;;;9.60;6.37;;;;;;;19.94;40.70;97733.41;5030220;28;20517;-71
2023/04/30 08:11:25;;;;;;;6.60;5.90;;;;;;;20.06;39.94;97737.13;5030105;28;20253;-71
2023/04/30 08:13:51;;;;;;;9.07;6.27;;;;;;;20.05;39.91;97735.50;5037893;28;20211;-71
2023/04/30 08:16:16;;;;;;;6.83;5.97;;;;;;;19.90;40.10;97733.00;5030068;28;20457;-72
2023/04/30 08:18:43;;;;;;;5.90;5.40;;;;;;;19.85;40.52;97734.59;5026273;28;20191;-71
2023/04/30 08:21:10;;;;;;;7.20;6.20;;;;;;;19.69;40.39;97725.94;5029912;28;20188;-72
2023/04/30 08:23:36;;;;;;;7.10;6.40;;;;;;;19.74;39.94;97739.47;5037474;28;20429;-69
2023/04/30 08:26:01;;;;;;;6.77;5.40;;;;;;;19.74;40.56;97733.31;5028746;28;20820;-71
2023/04/30 08:28:26;;;;;;;5.77;5.27;;;;;;;19.76;38.73;97737.44;5028495;28;20737;-72
2023/04/30 08:30:52;;;;;;;5.10;4.60;;;;;;;19.73;38.03;97735.16;5034969;28;20232;-71
2023/04/30 08:33:17;;;;;;;5.67;5.27;;;;;;;19.86;38.90;97734.41;5041541;28;20275;-71
2023/04/30 08:35:43;;;;;;;6.30;5.33;;;;;;;19.79;38.89;97739.66;5030490;28;20239;-71
2023/04/30 08:38:08;;;;;;;5.37;4.87;;;;;;;19.79;39.38;97736.22;5033709;28;20184;-70
2023/04/30 08:40:35;;;;;;;5.77;5.27;;;;;;;19.49;39.34;97742.63;5037047;28;20684;-71
2023/04/30 08:43:08;;;;;;;7.20;4.90;;;;;;;19.45;39.72;97741.38;5031383;28;20242;-71
2023/04/30 08:45:35;;;;;;;6.00;5.00;;;;;;;19.39;39.56;97736.00;5035248;28;21168;-70
2023/04/30 08:48:01;;;;;;;6.07;5.10;;;;;;;19.27;39.65;97727.78;5026996;28;20979;-71
2023/04/30 08:50:27;;;;;;;4.80;4.40;;;;;;;19.22;39.66;97735.50;5041925;28;20514;-71
2023/04/30 08:52:53;;;;;;;5.90;4.93;;;;;;;19.10;39.63;97737.88;5042461;28;20808;-71
2023/04/30 08:55:18;;;;;;;5.17;4.67;;;;;;;18.90;39.25;97743.03;5029436;28;20231;-71
2023/04/30 08:57:44;;;;;;;5.03;4.43;;;;;;;18.99;39.07;97741.91;5030637;28;20211;-70
2023/04/30 09:00:10;;;;;;;5.27;4.20;;;;;;;18.97;38.77;97733.28;5031074;28;20180;-70
2023/04/30 09:02:40;;;;;;;6.40;4.37;;;;;;;18.93;38.59;97738.16;5031752;28;20329;-72
2023/04/30 09:05:10;;;;;;;3.80;3.50;;;;;;;18.99;38.72;97731.28;5027934;28;20179;-69
2023/04/30 09:07:41;;;;;;;4.47;4.17;;;;;;;18.64;38.29;97745.25;5034010;28;20471;-71
2023/04/30 09:10:17;;;;;;;5.47;4.43;;;;;;;18.77;38.51;97747.22;5032680;28;20454;-69
2023/04/30 09:12:44;;;;;;;4.53;4.10;;;;;;;18.40;37.45;97749.09;5029890;28;20445;-69
2023/04/30 09:15:10;;;;;;;3.57;3.27;;;;;;;18.48;38.29;97741.03;5028037;28;20465;-72
2023/04/30 09:17:36;;;;;;;4.17;3.77;;;;;;;18.50;38.64;97730.22;5033262;28;20466;-70
2023/04/30 09:20:11;;;;;;;4.53;4.10;;;;;;;18.54;38.93;97734.97;5030679;28;20600;-72
2023/04/30 09:22:38;;;;;;;4.67;4.13;;;;;;;18.43;37.74;97735.47;5029681;28;20195;-70
2023/04/30 09:25:05;;;;;;;4.20;3.80;;;;;;;18.47;37.99;97736.75;5036141;28;20422;-71
2023/04/30 09:27:31;;;;;;;3.90;3.60;;;;;;;18.54;38.06;97734.97;5022710;28;20465;-70
2023/04/30 09:29:56;;;;;;;4.87;4.40;;;;;;;18.55;37.56;97735.78;5034466;28;20491;-71
2023/04/30 09:32:21;;;;;;;4.33;3.93;;;;;;;18.65;38.06;97738.94;5030326;28;20226;-71
2023/04/30 09:34:47;;;;;;;5.57;3.90;;;;;;;18.67;37.70;97728.13;5029415;28;20208;-69
2023/04/30 09:37:13;;;;;;;3.80;3.50;;;;;;;18.78;37.67;97742.72;5035843;28;20303;-70
2023/04/30 09:39:54;;;;;;;3.80;3.43;;;;;;;18.81;37.43;97735.19;5028835;28;20199;-71
2023/04/30 09:42:20;;;;;;;4.43;4.00;;;;;;;18.80;37.69;97728.22;5028933;28;20191;-71
2023/04/30 09:44:45;;;;;;;5.10;4.10;;;;;;;18.82;38.00;97742.16;5033202;28;20518;-70
2023/04/30 09:47:15;;;;;;;4.30;3.50;;;;;;;18.65;36.91;97740.78;5027983;28;20681;-71
2023/04/30 09:49:50;;;;;;;4.30;3.30;;;;;;;18.68;37.06;97727.94;5042912;28;20202;-71
2023/04/30 09:52:16;;;;;;;3.40;3.03;;;;;;;18.72;36.91;97736.34;5029062;28;20429;-71
2023/04/30 09:54:43;;;;;;;3.70;3.30;;;;;;;18.76;36.60;97732.31;5029564;28;21283;-70
2023/04/30 09:57:10;;;;;;;5.17;3.40;;;;;;;18.82;37.04;97731.53;5028151;28;20449;-70
2023/04/30 09:59:38;;;;;;;3.30;3.10;;;;;;;18.96;36.69;97735.16;5030043;28;20430;-70
2023/04/30 10:02:05;;;;;;;3.70;3.20;;;;;;;19.06;36.87;97723.34;5029772;28;20509;-71
2023/04/30 10:04:36;;;;;;;3.73;2.80;;;;;;;19.11;36.62;97724.41;5029213;28;20422;-70
2023/04/30 10:07:09;;;;;;;3.10;2.80;;;;;;;19.13;36.50;97727.69;5037426;28;20446;-72
2023/04/30 10:10:02;;;;;;;2.93;2.70;;;;;;;19.15;36.36;97722.19;5021608;28;20983;-71
2023/04/30 10:12:39;;;;;;;3.00;2.80;;;;;;;18.88;35.72;97727.28;5027504;28;20822;-70
2023/04/30 10:15:32;;;;;;;3.13;2.83;;;;;;;19.03;36.49;97732.50;5028983;28;20837;-72
2023/04/30 10:18:01;;;;;;;3.57;3.27;;;;;;;18.93;35.62;97732.00;5024307;28;20477;-71
2023/04/30 10:20:27;;;;;;;3.33;2.90;;;;;;;18.97;35.83;97722.69;5036945;28;20436;-72
2023/04/30 10:22:52;;;;;;;3.73;3.43;;;;;;;18.97;36.06;97720.03;5028005;28;20431;-70
2023/04/30 10:25:18;;;;;;;3.40;3.13;;;;;;;19.06;35.86;97718.84;5029469;28;20314;-72
2023/04/30 10:27:45;;;;;;;5.50;3.07;;;;;;;19.17;35.84;97723.63;5028946;28;20294;-71
2023/04/30 10:30:11;;;;;;;3.37;3.07;;;;;;;19.22;35.78;97714.25;5035092;28;20190;-71
2023/04/30 10:32:45;;;;;;;5.20;4.60;;;;;;;19.31;35.57;97713.06;5034748;28;20438;-70
2023/04/30 10:35:18;;;;;;;3.60;3.30;;;;;;;19.36;35.32;97710.66;5028699;28;21215;-71
2023/04/30 10:37:54;;;;;;;5.00;3.07;;;;;;;19.40;34.99;97714.56;5040988;28;20457;-71
2023/04/30 10:40:19;;;;;;;3.93;3.53;;;;;;;19.49;35.11;97710.72;5041165;28;21037;-72
2023/04/30 10:42:48;;;;;;;5.70;3.50;;;;;;;19.34;34.63;97716.16;5031990;28;20438;-70
2023/04/30 10:45:19;;;;;;;4.30;3.23;;;;;;;19.45;34.81;97714.78;5036537;28;20270;-71
2023/04/30 10:47:44;;;;;;;3.53;3.23;;;;;;;19.52;34.79;97709.50;5031193;28;20473;-72
2023/04/30 10:50:10;;;;;;;3.70;3.37;;;;;;;19.62;35.04;97706.50;5036751;28;20422;-72
2023/04/30 10:52:37;;;;;;;3.20;2.90;;;;;;;19.75;35.21;97697.72;5029735;28;20187;-71
2023/04/30 10:55:09;;;;;;;3.80;2.70;;;;;;;19.82;35.48;97695.94;5036779;28;20215;-71
2023/04/30 10:57:42;;;;;;;4.47;3.00;;;;;;;19.93;35.19;97702.50;5044129;28;20529;-72
2023/04/30 11:00:08;;;;;;;3.80;3.20;;;;;;;19.95;34.30;97687.19;5035811;28;20453;-70
2023/04/30 11:02:44;;;;;;;3.30;3.00;;;;;;;19.99;34.85;97699.06;5036030;28;20467;-71
2023/04/30 11:05:13;;;;;;;3.60;3.23;;;;;;;20.02;34.93;97693.34;5035933;28;20425;-72
2023/04/30 11:07:47;;;;;;;3.70;3.40;;;;;;;19.80;34.05;97688.13;5027311;28;21151;-71
2023/04/30 11:10:13;;;;;;;3.13;2.93;;;;;;;19.83;35.12;97696.72;5034989;28;20605;-72
2023/04/30 11:12:40;;;;;;;9.33;3.23;;;;;;;19.89;34.82;97691.47;5035123;28;20537;-70
2023/04/30 11:15:14;;;;;;;4.03;3.63;;;;;;;19.69;34.83;97694.03;5042267;28;20610;-70
2023/04/30 11:17:39;;;;;;;3.83;3.40;;;;;;;19.77;35.12;97691.22;5032742;28;20457;-72
2023/04/30 11:20:06;;;;;;;4.03;3.63;;;;;;;19.62;34.60;97696.66;5029958;28;20976;-70
2023/04/30 11:22:37;;;;;;;5.07;3.20;;;;;;;19.58;34.81;97683.97;5035239;28;20279;-71
2023/04/30 11:25:08;;;;;;;4.00;3.70;;;;;;;19.45;34.97;97688.22;5037314;28;20430;-70
2023/04/30 11:27:35;;;;;;;4.83;3.90;;;;;;;19.51;35.14;97686.59;5032534;28;20787;-71
2023/04/30 11:30:01;;;;;;;4.30;3.90;;;;;;;19.26;34.88;97691.59;5032206;28;20441;-72